sensor_id;sensor_type;location;lat;lon;timestamp;P1;durP1;ratioP1;P2;durP2;ratioP2
39566;SDS011;25241;41.978;14.664;2024-03-02T00:01:22;0.20;;;0.20;;
39566;SDS011;25241;41.978;14.664;2024-03-02T00:03:49;0.80;;;0.20;;
39566;SDS011;25241;41.978;14.664;2024-03-02T00:06:17;1.17;;;0.32;;
39566;SDS011;25241;41.978;14.664;2024-03-02T00:11:13;0.50;;;0.40;;
39566;SDS011;25241;41.978;14.664;2024-03-02T00:13:40;1.77;;;0.30;;
39566;SDS011;25241;41.978;14.664;2024-03-02T00:16:08;1.42;;;0.32;;
39566;SDS011;25241;41.978;14.664;2024-03-02T00:18:34;0.80;;;0.60;;
39566;SDS011;25241;41.978;14.664;2024-03-02T00:21:03;2.47;;;0.57;;
39566;SDS011;25241;41.978;14.664;2024-03-02T00:23:34;3.63;;;0.50;;
39566;SDS011;25241;41.978;14.664;2024-03-02T00:26:02;5.93;;;0.20;;
39566;SDS011;25241;41.978;14.664;2024-03-02T00:28:35;0.52;;;0.20;;
39566;SDS011;25241;41.978;14.664;2024-03-02T00:31:07;5.43;;;0.20;;
39566;SDS011;25241;41.978;14.664;2024-03-02T00:33:36;0.10;;;0.10;;
39566;SDS011;25241;41.978;14.664;2024-03-02T00:36:05;0.28;;;0.20;;
39566;SDS011;25241;41.978;14.664;2024-03-02T00:38:32;0.85;;;0.10;;
39566;SDS011;25241;41.978;14.664;2024-03-02T00:40:59;0.10;;;0.10;;
39566;SDS011;25241;41.978;14.664;2024-03-02T00:46:02;1.08;;;0.30;;
39566;SDS011;25241;41.978;14.664;2024-03-02T00:48:28;0.75;;;0.43;;
39566;SDS011;25241;41.978;14.664;2024-03-02T00:50:58;0.40;;;0.20;;
39566;SDS011;25241;41.978;14.664;2024-03-02T00:53:25;1.13;;;0.22;;
39566;SDS011;25241;41.978;14.664;2024-03-02T00:55:52;1.25;;;0.32;;
39566;SDS011;25241;41.978;14.664;2024-03-02T00:58:20;0.55;;;0.22;;
39566;SDS011;25241;41.978;14.664;2024-03-02T01:00:48;4.38;;;0.38;;
39566;SDS011;25241;41.978;14.664;2024-03-02T01:03:13;2.75;;;0.82;;
39566;SDS011;25241;41.978;14.664;2024-03-02T01:05:44;0.52;;;0.30;;
39566;SDS011;25241;41.978;14.664;2024-03-02T01:08:10;4.07;;;0.90;;
39566;SDS011;25241;41.978;14.664;2024-03-02T01:10:36;1.95;;;0.60;;
39566;SDS011;25241;41.978;14.664;2024-03-02T01:13:01;0.70;;;0.50;;
39566;SDS011;25241;41.978;14.664;2024-03-02T01:15:27;0.75;;;0.45;;
39566;SDS011;25241;41.978;14.664;2024-03-02T01:17:53;1.50;;;0.82;;
39566;SDS011;25241;41.978;14.664;2024-03-02T01:20:21;1.80;;;0.60;;
39566;SDS011;25241;41.978;14.664;2024-03-02T01:22:47;0.80;;;0.40;;
39566;SDS011;25241;41.978;14.664;2024-03-02T01:25:15;1.30;;;0.17;;
39566;SDS011;25241;41.978;14.664;2024-03-02T01:27:43;1.70;;;0.35;;
39566;SDS011;25241;41.978;14.664;2024-03-02T01:30:08;0.13;;;0.13;;
39566;SDS011;25241;41.978;14.664;2024-03-02T01:32:34;0.10;;;0.10;;
39566;SDS011;25241;41.978;14.664;2024-03-02T01:35:02;0.77;;;0.20;;
39566;SDS011;25241;41.978;14.664;2024-03-02T01:37:28;0.28;;;0.28;;
39566;SDS011;25241;41.978;14.664;2024-03-02T01:39:53;0.80;;;0.40;;
39566;SDS011;25241;41.978;14.664;2024-03-02T01:42:19;1.25;;;0.40;;
39566;SDS011;25241;41.978;14.664;2024-03-02T01:44:47;3.72;;;0.38;;
39566;SDS011;25241;41.978;14.664;2024-03-02T01:47:14;0.57;;;0.30;;
39566;SDS011;25241;41.978;14.664;2024-03-02T01:49:40;1.65;;;0.22;;
39566;SDS011;25241;41.978;14.664;2024-03-02T01:52:08;2.28;;;0.20;;
39566;SDS011;25241;41.978;14.664;2024-03-02T01:54:36;5.07;;;0.20;;
39566;SDS011;25241;41.978;14.664;2024-03-02T01:57:02;2.47;;;0.10;;
39566;SDS011;25241;41.978;14.664;2024-03-02T01:59:30;0.20;;;0.10;;
39566;SDS011;25241;41.978;14.664;2024-03-02T02:01:58;1.05;;;0.32;;
39566;SDS011;25241;41.978;14.664;2024-03-02T02:04:26;1.88;;;0.50;;
39566;SDS011;25241;41.978;14.664;2024-03-02T02:06:53;0.43;;;0.15;;
39566;SDS011;25241;41.978;14.664;2024-03-02T02:09:19;5.93;;;0.35;;
39566;SDS011;25241;41.978;14.664;2024-03-02T02:11:47;0.85;;;0.20;;
39566;SDS011;25241;41.978;14.664;2024-03-02T02:14:15;0.43;;;0.30;;
39566;SDS011;25241;41.978;14.664;2024-03-02T02:16:40;0.20;;;0.20;;
39566;SDS011;25241;41.978;14.664;2024-03-02T02:19:08;0.20;;;0.10;;
39566;SDS011;25241;41.978;14.664;2024-03-02T02:21:37;0.40;;;0.20;;
39566;SDS011;25241;41.978;14.664;2024-03-02T02:24:05;1.83;;;0.10;;
39566;SDS011;25241;41.978;14.664;2024-03-02T02:26:33;0.35;;;0.28;;
39566;SDS011;25241;41.978;14.664;2024-03-02T02:29:01;3.47;;;0.38;;
39566;SDS011;25241;41.978;14.664;2024-03-02T02:31:26;2.55;;;0.08;;
39566;SDS011;25241;41.978;14.664;2024-03-02T02:33:54;0.00;;;0.00;;
39566;SDS011;25241;41.978;14.664;2024-03-02T02:36:20;0.30;;;0.15;;
39566;SDS011;25241;41.978;14.664;2024-03-02T02:38:48;0.10;;;0.10;;
39566;SDS011;25241;41.978;14.664;2024-03-02T02:41:14;0.00;;;0.00;;
39566;SDS011;25241;41.978;14.664;2024-03-02T02:43:39;0.60;;;0.10;;
39566;SDS011;25241;41.978;14.664;2024-03-02T02:46:05;0.45;;;0.20;;
39566;SDS011;25241;41.978;14.664;2024-03-02T02:48:33;2.50;;;0.10;;
39566;SDS011;25241;41.978;14.664;2024-03-02T02:50:59;0.20;;;0.10;;
39566;SDS011;25241;41.978;14.664;2024-03-02T02:53:27;0.20;;;0.20;;
39566;SDS011;25241;41.978;14.664;2024-03-02T02:55:52;0.10;;;0.10;;
39566;SDS011;25241;41.978;14.664;2024-03-02T02:58:18;1.58;;;0.20;;
39566;SDS011;25241;41.978;14.664;2024-03-02T03:00:46;0.10;;;0.10;;
39566;SDS011;25241;41.978;14.664;2024-03-02T03:03:11;0.20;;;0.20;;
39566;SDS011;25241;41.978;14.664;2024-03-02T03:05:39;0.93;;;0.10;;
39566;SDS011;25241;41.978;14.664;2024-03-02T03:08:05;0.13;;;0.13;;
39566;SDS011;25241;41.978;14.664;2024-03-02T03:10:33;0.28;;;0.20;;
39566;SDS011;25241;41.978;14.664;2024-03-02T03:12:58;0.03;;;0.03;;
39566;SDS011;25241;41.978;14.664;2024-03-02T03:15:24;0.43;;;0.15;;
39566;SDS011;25241;41.978;14.664;2024-03-02T03:17:49;1.45;;;0.10;;
39566;SDS011;25241;41.978;14.664;2024-03-02T03:20:16;6.93;;;0.20;;
39566;SDS011;25241;41.978;14.664;2024-03-02T03:22:42;0.63;;;0.25;;
39566;SDS011;25241;41.978;14.664;2024-03-02T03:25:07;0.20;;;0.10;;
39566;SDS011;25241;41.978;14.664;2024-03-02T03:27:35;3.40;;;0.32;;
39566;SDS011;25241;41.978;14.664;2024-03-02T03:30:04;0.00;;;0.00;;
39566;SDS011;25241;41.978;14.664;2024-03-02T03:32:31;0.17;;;0.10;;
39566;SDS011;25241;41.978;14.664;2024-03-02T03:34:59;4.68;;;0.20;;
39566;SDS011;25241;41.978;14.664;2024-03-02T03:37:24;2.60;;;0.10;;
39566;SDS011;25241;41.978;14.664;2024-03-02T03:39:52;0.00;;;0.00;;
39566;SDS011;25241;41.978;14.664;2024-03-02T03:42:18;0.00;;;0.00;;
39566;SDS011;25241;41.978;14.664;2024-03-02T03:44:46;0.15;;;0.10;;
39566;SDS011;25241;41.978;14.664;2024-03-02T03:47:11;3.65;;;0.25;;
39566;SDS011;25241;41.978;14.664;2024-03-02T03:49:39;3.60;;;0.30;;
39566;SDS011;25241;41.978;14.664;2024-03-02T03:52:05;0.10;;;0.10;;
39566;SDS011;25241;41.978;14.664;2024-03-02T03:54:30;0.10;;;0.00;;
39566;SDS011;25241;41.978;14.664;2024-03-02T03:56:56;4.78;;;0.20;;
39566;SDS011;25241;41.978;14.664;2024-03-02T03:59:24;0.28;;;0.10;;
39566;SDS011;25241;41.978;14.664;2024-03-02T04:01:52;0.50;;;0.20;;
39566;SDS011;25241;41.978;14.664;2024-03-02T04:04:21;0.00;;;0.00;;
39566;SDS011;25241;41.978;14.664;2024-03-02T04:06:49;1.27;;;0.10;;
39566;SDS011;25241;41.978;14.664;2024-03-02T04:09:14;0.00;;;0.00;;
39566;SDS011;25241;41.978;14.664;2024-03-02T04:11:40;2.10;;;0.70;;
39566;SDS011;25241;41.978;14.664;2024-03-02T04:14:06;0.00;;;0.00;;
39566;SDS011;25241;41.978;14.664;2024-03-02T04:16:31;0.35;;;0.10;;
39566;SDS011;25241;41.978;14.664;2024-03-02T04:18:57;0.20;;;0.15;;
39566;SDS011;25241;41.978;14.664;2024-03-02T04:21:22;2.00;;;0.20;;
39566;SDS011;25241;41.978;14.664;2024-03-02T04:23:48;1.23;;;0.10;;
39566;SDS011;25241;41.978;14.664;2024-03-02T04:26:16;0.28;;;0.20;;
39566;SDS011;25241;41.978;14.664;2024-03-02T04:28:47;0.20;;;0.10;;
39566;SDS011;25241;41.978;14.664;2024-03-02T04:31:12;0.03;;;0.03;;
39566;SDS011;25241;41.978;14.664;2024-03-02T04:33:38;2.63;;;0.17;;
39566;SDS011;25241;41.978;14.664;2024-03-02T04:36:03;0.20;;;0.10;;
39566;SDS011;25241;41.978;14.664;2024-03-02T04:38:32;1.10;;;0.22;;
39566;SDS011;25241;41.978;14.664;2024-03-02T04:40:57;2.97;;;0.10;;
39566;SDS011;25241;41.978;14.664;2024-03-02T04:43:23;0.00;;;0.00;;
39566;SDS011;25241;41.978;14.664;2024-03-02T04:45:48;0.25;;;0.00;;
39566;SDS011;25241;41.978;14.664;2024-03-02T04:48:14;0.65;;;0.30;;
39566;SDS011;25241;41.978;14.664;2024-03-02T04:50:39;0.00;;;0.00;;
39566;SDS011;25241;41.978;14.664;2024-03-02T04:53:08;0.05;;;0.03;;
39566;SDS011;25241;41.978;14.664;2024-03-02T04:55:33;1.88;;;0.15;;
39566;SDS011;25241;41.978;14.664;2024-03-02T04:57:59;0.00;;;0.00;;
39566;SDS011;25241;41.978;14.664;2024-03-02T05:00:27;0.30;;;0.10;;
39566;SDS011;25241;41.978;14.664;2024-03-02T05:02:52;0.00;;;0.00;;
39566;SDS011;25241;41.978;14.664;2024-03-02T05:05:18;0.10;;;0.10;;
39566;SDS011;25241;41.978;14.664;2024-03-02T05:07:43;0.57;;;0.43;;
39566;SDS011;25241;41.978;14.664;2024-03-02T05:10:11;0.60;;;0.20;;
39566;SDS011;25241;41.978;14.664;2024-03-02T05:12:37;0.00;;;0.00;;
39566;SDS011;25241;41.978;14.664;2024-03-02T05:15:14;0.10;;;0.10;;
39566;SDS011;25241;41.978;14.664;2024-03-02T05:17:40;0.00;;;0.00;;
39566;SDS011;25241;41.978;14.664;2024-03-02T05:20:09;0.38;;;0.13;;
39566;SDS011;25241;41.978;14.664;2024-03-02T05:22:38;0.55;;;0.17;;
39566;SDS011;25241;41.978;14.664;2024-03-02T05:25:05;0.28;;;0.03;;
39566;SDS011;25241;41.978;14.664;2024-03-02T05:27:31;0.10;;;0.10;;
39566;SDS011;25241;41.978;14.664;2024-03-02T05:30:00;0.55;;;0.22;;
39566;SDS011;25241;41.978;14.664;2024-03-02T05:32:26;0.22;;;0.10;;
39566;SDS011;25241;41.978;14.664;2024-03-02T05:34:54;0.00;;;0.00;;
39566;SDS011;25241;41.978;14.664;2024-03-02T05:37:20;0.70;;;0.20;;
39566;SDS011;25241;41.978;14.664;2024-03-02T05:39:48;1.75;;;0.30;;
39566;SDS011;25241;41.978;14.664;2024-03-02T05:42:16;0.22;;;0.10;;
39566;SDS011;25241;41.978;14.664;2024-03-02T05:44:46;0.43;;;0.35;;
39566;SDS011;25241;41.978;14.664;2024-03-02T05:47:14;0.00;;;0.00;;
39566;SDS011;25241;41.978;14.664;2024-03-02T05:49:42;1.20;;;0.20;;
39566;SDS011;25241;41.978;14.664;2024-03-02T05:52:11;1.88;;;0.15;;
39566;SDS011;25241;41.978;14.664;2024-03-02T05:54:37;1.33;;;0.10;;
39566;SDS011;25241;41.978;14.664;2024-03-02T05:57:03;2.58;;;0.25;;
39566;SDS011;25241;41.978;14.664;2024-03-02T05:59:44;0.10;;;0.10;;
39566;SDS011;25241;41.978;14.664;2024-03-02T06:02:12;4.75;;;0.38;;
39566;SDS011;25241;41.978;14.664;2024-03-02T06:04:40;2.85;;;0.15;;
39566;SDS011;25241;41.978;14.664;2024-03-02T06:07:06;0.47;;;0.20;;
39566;SDS011;25241;41.978;14.664;2024-03-02T06:09:31;0.65;;;0.47;;
39566;SDS011;25241;41.978;14.664;2024-03-02T06:11:57;3.40;;;0.25;;
39566;SDS011;25241;41.978;14.664;2024-03-02T06:14:25;0.47;;;0.10;;
39566;SDS011;25241;41.978;14.664;2024-03-02T06:16:50;0.10;;;0.10;;
39566;SDS011;25241;41.978;14.664;2024-03-02T06:19:16;0.13;;;0.03;;
39566;SDS011;25241;41.978;14.664;2024-03-02T06:21:42;2.03;;;0.43;;
39566;SDS011;25241;41.978;14.664;2024-03-02T06:24:08;0.80;;;0.38;;
39566;SDS011;25241;41.978;14.664;2024-03-02T06:26:34;0.22;;;0.20;;
39566;SDS011;25241;41.978;14.664;2024-03-02T06:29:02;0.45;;;0.40;;
39566;SDS011;25241;41.978;14.664;2024-03-02T06:31:30;0.68;;;0.17;;
39566;SDS011;25241;41.978;14.664;2024-03-02T06:33:58;0.73;;;0.20;;
39566;SDS011;25241;41.978;14.664;2024-03-02T06:36:26;0.00;;;0.00;;
39566;SDS011;25241;41.978;14.664;2024-03-02T06:38:54;3.45;;;0.35;;
39566;SDS011;25241;41.978;14.664;2024-03-02T06:41:19;0.35;;;0.20;;
39566;SDS011;25241;41.978;14.664;2024-03-02T06:55:58;4.15;;;0.30;;
39566;SDS011;25241;41.978;14.664;2024-03-02T06:58:26;0.22;;;0.10;;
39566;SDS011;25241;41.978;14.664;2024-03-02T07:00:52;1.08;;;0.38;;
39566;SDS011;25241;41.978;14.664;2024-03-02T07:03:18;0.60;;;0.15;;
39566;SDS011;25241;41.978;14.664;2024-03-02T07:05:45;3.92;;;0.60;;
39566;SDS011;25241;41.978;14.664;2024-03-02T07:08:12;0.45;;;0.10;;
39566;SDS011;25241;41.978;14.664;2024-03-02T07:10:40;1.08;;;0.20;;
39566;SDS011;25241;41.978;14.664;2024-03-02T07:13:06;5.82;;;0.40;;
39566;SDS011;25241;41.978;14.664;2024-03-02T07:15:31;0.00;;;0.00;;
39566;SDS011;25241;41.978;14.664;2024-03-02T07:18:15;2.38;;;0.10;;
39566;SDS011;25241;41.978;14.664;2024-03-02T07:20:43;0.75;;;0.30;;
39566;SDS011;25241;41.978;14.664;2024-03-02T09:51:23;4.15;;;1.50;;
39566;SDS011;25241;41.978;14.664;2024-03-02T09:53:49;3.30;;;1.20;;
39566;SDS011;25241;41.978;14.664;2024-03-02T09:56:17;3.30;;;1.33;;
39566;SDS011;25241;41.978;14.664;2024-03-02T09:58:46;3.50;;;1.67;;
39566;SDS011;25241;41.978;14.664;2024-03-02T10:01:11;2.50;;;0.88;;
39566;SDS011;25241;41.978;14.664;2024-03-02T10:03:37;1.00;;;0.70;;
39566;SDS011;25241;41.978;14.664;2024-03-02T10:06:19;5.68;;;1.77;;
39566;SDS011;25241;41.978;14.664;2024-03-02T10:08:45;5.68;;;1.70;;
39566;SDS011;25241;41.978;14.664;2024-03-02T10:11:13;1.05;;;0.70;;
39566;SDS011;25241;41.978;14.664;2024-03-02T10:13:59;0.95;;;0.38;;
39566;SDS011;25241;41.978;14.664;2024-03-02T10:16:32;1.55;;;0.50;;
39566;SDS011;25241;41.978;14.664;2024-03-02T10:18:58;0.70;;;0.30;;
39566;SDS011;25241;41.978;14.664;2024-03-02T10:33:41;3.20;;;1.00;;
39566;SDS011;25241;41.978;14.664;2024-03-02T10:38:32;2.65;;;1.20;;
39566;SDS011;25241;41.978;14.664;2024-03-02T19:18:03;5.60;;;2.93;;
39566;SDS011;25241;41.978;14.664;2024-03-02T19:20:31;6.32;;;2.35;;
39566;SDS011;25241;41.978;14.664;2024-03-02T19:22:57;5.45;;;2.88;;
39566;SDS011;25241;41.978;14.664;2024-03-02T19:25:41;5.32;;;2.15;;
39566;SDS011;25241;41.978;14.664;2024-03-02T19:28:09;8.75;;;3.17;;
39566;SDS011;25241;41.978;14.664;2024-03-02T19:30:35;18.88;;;5.43;;
39566;SDS011;25241;41.978;14.664;2024-03-02T19:33:02;13.52;;;5.75;;
39566;SDS011;25241;41.978;14.664;2024-03-02T19:35:27;15.50;;;6.05;;
39566;SDS011;25241;41.978;14.664;2024-03-02T19:37:53;27.13;;;8.02;;
39566;SDS011;25241;41.978;14.664;2024-03-02T19:40:20;21.73;;;8.25;;
39566;SDS011;25241;41.978;14.664;2024-03-02T19:42:47;18.08;;;6.35;;
39566;SDS011;25241;41.978;14.664;2024-03-02T19:45:13;16.73;;;6.88;;
39566;SDS011;25241;41.978;14.664;2024-03-02T19:47:41;6.78;;;3.35;;
39566;SDS011;25241;41.978;14.664;2024-03-02T19:50:08;8.35;;;1.65;;
39566;SDS011;25241;41.978;14.664;2024-03-02T19:52:40;11.43;;;3.72;;
39566;SDS011;25241;41.978;14.664;2024-03-02T19:55:05;5.97;;;2.83;;
39566;SDS011;25241;41.978;14.664;2024-03-02T19:57:31;5.95;;;3.08;;
39566;SDS011;25241;41.978;14.664;2024-03-02T20:00:00;14.53;;;6.63;;
39566;SDS011;25241;41.978;14.664;2024-03-02T20:02:26;5.47;;;3.05;;
39566;SDS011;25241;41.978;14.664;2024-03-02T20:04:52;10.95;;;3.95;;
39566;SDS011;25241;41.978;14.664;2024-03-02T20:07:20;5.70;;;2.22;;
39566;SDS011;25241;41.978;14.664;2024-03-02T20:09:48;5.15;;;1.90;;
39566;SDS011;25241;41.978;14.664;2024-03-02T20:12:18;12.30;;;2.90;;
39566;SDS011;25241;41.978;14.664;2024-03-02T20:14:44;8.75;;;2.88;;
39566;SDS011;25241;41.978;14.664;2024-03-02T20:17:11;3.60;;;1.73;;
39566;SDS011;25241;41.978;14.664;2024-03-02T20:19:40;5.30;;;2.20;;
39566;SDS011;25241;41.978;14.664;2024-03-02T20:22:06;1.88;;;1.25;;
39566;SDS011;25241;41.978;14.664;2024-03-02T20:24:31;5.07;;;1.67;;
39566;SDS011;25241;41.978;14.664;2024-03-02T20:26:57;5.45;;;1.60;;
39566;SDS011;25241;41.978;14.664;2024-03-02T20:29:25;5.07;;;1.25;;
39566;SDS011;25241;41.978;14.664;2024-03-02T20:31:50;9.68;;;2.63;;
39566;SDS011;25241;41.978;14.664;2024-03-02T20:34:16;4.50;;;1.30;;
39566;SDS011;25241;41.978;14.664;2024-03-02T20:36:43;5.40;;;1.15;;
39566;SDS011;25241;41.978;14.664;2024-03-02T20:39:09;1.95;;;0.80;;
39566;SDS011;25241;41.978;14.664;2024-03-02T20:41:35;3.42;;;1.23;;
39566;SDS011;25241;41.978;14.664;2024-03-02T20:44:01;0.85;;;0.63;;
39566;SDS011;25241;41.978;14.664;2024-03-02T20:46:31;4.63;;;1.35;;
39566;SDS011;25241;41.978;14.664;2024-03-02T20:48:56;2.88;;;0.90;;
39566;SDS011;25241;41.978;14.664;2024-03-02T20:51:24;5.10;;;1.90;;
39566;SDS011;25241;41.978;14.664;2024-03-02T20:53:57;11.02;;;3.20;;
39566;SDS011;25241;41.978;14.664;2024-03-02T20:56:25;9.30;;;3.50;;
39566;SDS011;25241;41.978;14.664;2024-03-02T20:58:53;14.98;;;2.78;;
39566;SDS011;25241;41.978;14.664;2024-03-02T21:01:19;9.65;;;4.13;;
39566;SDS011;25241;41.978;14.664;2024-03-02T21:03:45;4.55;;;2.13;;
39566;SDS011;25241;41.978;14.664;2024-03-02T21:06:13;6.53;;;1.95;;
39566;SDS011;25241;41.978;14.664;2024-03-02T21:08:38;6.13;;;2.20;;
39566;SDS011;25241;41.978;14.664;2024-03-02T21:11:04;2.63;;;1.27;;
39566;SDS011;25241;41.978;14.664;2024-03-02T21:13:30;3.95;;;1.15;;
39566;SDS011;25241;41.978;14.664;2024-03-02T21:15:56;9.90;;;1.20;;
39566;SDS011;25241;41.978;14.664;2024-03-02T21:18:24;7.40;;;1.48;;
39566;SDS011;25241;41.978;14.664;2024-03-02T21:20:52;4.22;;;1.67;;
39566;SDS011;25241;41.978;14.664;2024-03-02T21:23:18;0.60;;;0.52;;
39566;SDS011;25241;41.978;14.664;2024-03-02T21:25:46;25.30;;;1.42;;
39566;SDS011;25241;41.978;14.664;2024-03-02T21:28:14;1.35;;;0.88;;
39566;SDS011;25241;41.978;14.664;2024-03-02T21:30:42;6.55;;;0.85;;
39566;SDS011;25241;41.978;14.664;2024-03-02T21:33:10;3.58;;;0.90;;
39566;SDS011;25241;41.978;14.664;2024-03-02T21:35:35;3.53;;;0.80;;
39566;SDS011;25241;41.978;14.664;2024-03-02T21:38:04;10.48;;;1.25;;
39566;SDS011;25241;41.978;14.664;2024-03-02T21:40:31;6.55;;;1.48;;
39566;SDS011;25241;41.978;14.664;2024-03-02T21:42:57;3.95;;;1.25;;
39566;SDS011;25241;41.978;14.664;2024-03-02T21:45:25;10.07;;;2.63;;
39566;SDS011;25241;41.978;14.664;2024-03-02T21:47:53;12.02;;;2.42;;
39566;SDS011;25241;41.978;14.664;2024-03-02T21:50:19;6.80;;;1.48;;
39566;SDS011;25241;41.978;14.664;2024-03-02T21:52:47;7.78;;;1.10;;
39566;SDS011;25241;41.978;14.664;2024-03-02T21:55:14;0.57;;;0.55;;
39566;SDS011;25241;41.978;14.664;2024-03-02T21:57:43;10.07;;;1.27;;
39566;SDS011;25241;41.978;14.664;2024-03-02T22:00:09;5.07;;;0.98;;
39566;SDS011;25241;41.978;14.664;2024-03-02T22:02:35;2.65;;;1.48;;
39566;SDS011;25241;41.978;14.664;2024-03-02T22:05:00;3.95;;;0.50;;
39566;SDS011;25241;41.978;14.664;2024-03-02T22:07:26;3.63;;;0.77;;
39566;SDS011;25241;41.978;14.664;2024-03-02T22:09:51;5.78;;;0.85;;
39566;SDS011;25241;41.978;14.664;2024-03-02T22:12:17;3.70;;;0.82;;
39566;SDS011;25241;41.978;14.664;2024-03-02T22:14:43;7.00;;;0.98;;
39566;SDS011;25241;41.978;14.664;2024-03-02T22:17:11;6.50;;;0.80;;
39566;SDS011;25241;41.978;14.664;2024-03-02T22:19:37;8.68;;;1.55;;
39566;SDS011;25241;41.978;14.664;2024-03-02T22:22:02;2.75;;;1.27;;
39566;SDS011;25241;41.978;14.664;2024-03-02T22:24:30;6.15;;;1.15;;
39566;SDS011;25241;41.978;14.664;2024-03-02T22:26:56;8.57;;;2.10;;
39566;SDS011;25241;41.978;14.664;2024-03-02T22:29:24;7.18;;;1.27;;
39566;SDS011;25241;41.978;14.664;2024-03-02T22:31:49;5.55;;;0.90;;
39566;SDS011;25241;41.978;14.664;2024-03-02T22:34:17;1.85;;;0.82;;
39566;SDS011;25241;41.978;14.664;2024-03-02T22:36:45;4.25;;;0.88;;
39566;SDS011;25241;41.978;14.664;2024-03-02T22:39:11;2.38;;;0.95;;
39566;SDS011;25241;41.978;14.664;2024-03-02T22:41:36;5.10;;;1.33;;
39566;SDS011;25241;41.978;14.664;2024-03-02T22:44:02;3.50;;;0.80;;
39566;SDS011;25241;41.978;14.664;2024-03-02T22:46:28;2.65;;;0.50;;
39566;SDS011;25241;41.978;14.664;2024-03-02T22:48:53;3.25;;;1.25;;
39566;SDS011;25241;41.978;14.664;2024-03-02T22:51:22;4.43;;;1.35;;
